createdAt,value
2022-11-29T00:00:15.748Z,18.77
2022-11-29T00:02:43.141Z,15.43
2022-11-29T00:05:11.629Z,28.23
2022-11-29T00:07:41.821Z,13.77
2022-11-29T00:10:09.845Z,35.92
2022-11-29T00:12:37.314Z,18.70
2022-11-29T00:15:05.049Z,19.23
2022-11-29T00:17:32.640Z,16.38
2022-11-29T00:20:00.285Z,16.92
2022-11-29T00:22:28.491Z,15.25
2022-11-29T00:24:55.810Z,20.63
2022-11-29T00:27:23.579Z,15.95
2022-11-29T00:29:51.239Z,23.42
2022-11-29T00:32:18.619Z,15.43
2022-11-29T00:34:46.248Z,19.63
2022-11-29T00:37:16.268Z,15.75
2022-11-29T00:39:43.835Z,19.40
2022-11-29T00:42:11.194Z,16.02
2022-11-29T00:44:38.753Z,16.40
2022-11-29T00:47:06.301Z,26.60
2022-11-29T00:49:33.713Z,22.63
2022-11-29T00:52:01.428Z,18.73
2022-11-29T00:54:28.920Z,20.83
2022-11-29T00:56:56.565Z,25.35
2022-11-29T00:59:23.872Z,18.88
2022-11-29T01:01:51.433Z,16.70
2022-11-29T01:04:19.425Z,17.70
2022-11-29T01:06:46.784Z,17.00
2022-11-29T01:09:17.381Z,23.60
2022-11-29T01:11:44.981Z,21.52
2022-11-29T01:14:12.948Z,18.52
2022-11-29T01:16:41.773Z,22.73
2022-11-29T01:19:12.422Z,17.85
2022-11-29T01:21:40.034Z,26.88
2022-11-29T01:24:08.242Z,26.58
2022-11-29T01:26:35.570Z,20.40
2022-11-29T01:29:03.343Z,16.77
2022-11-29T01:31:38.228Z,16.20
2022-11-29T01:34:07.113Z,18.65
2022-11-29T01:36:35.571Z,21.77
2022-11-29T01:39:05.173Z,19.15
2022-11-29T01:41:35.148Z,16.15
2022-11-29T01:44:28.571Z,16.98
2022-11-29T01:49:28.345Z,32.05
2022-11-29T01:52:03.010Z,16.95
2022-11-29T01:54:32.031Z,20.02
2022-11-29T01:56:59.716Z,26.58
2022-11-29T01:59:29.757Z,36.78
2022-11-29T02:02:05.148Z,18.55
2022-11-29T02:04:36.072Z,29.92
2022-11-29T02:07:03.782Z,31.08
2022-11-29T02:09:32.390Z,18.55
2022-11-29T02:12:14.692Z,19.27
2022-11-29T02:15:15.830Z,17.33
2022-11-29T02:17:58.177Z,23.58
2022-11-29T02:20:54.096Z,17.45
2022-11-29T02:23:28.776Z,37.00
2022-11-29T02:26:18.191Z,14.85
2022-11-29T02:29:01.022Z,22.00
2022-11-29T02:32:06.102Z,17.83
2022-11-29T02:34:52.716Z,21.67
2022-11-29T02:37:29.083Z,17.55
2022-11-29T02:40:20.256Z,25.50
2022-11-29T02:43:02.442Z,25.05
2022-11-29T02:45:49.053Z,26.10
2022-11-29T02:48:31.220Z,24.48
2022-11-29T02:51:01.270Z,20.95
2022-11-29T02:53:39.782Z,30.60
2022-11-29T02:56:32.113Z,24.88
2022-11-29T02:59:22.315Z,19.27
2022-11-29T03:02:16.042Z,21.63
2022-11-29T03:05:18.327Z,21.83
2022-11-29T03:08:07.764Z,18.92
2022-11-29T03:11:03.146Z,19.45
2022-11-29T03:13:41.784Z,17.40
2022-11-29T03:16:28.611Z,16.83
2022-11-29T03:19:05.265Z,21.00
2022-11-29T03:21:48.900Z,14.80
2022-11-29T03:24:24.085Z,29.77
2022-11-29T03:27:17.830Z,19.98
2022-11-29T03:30:00.818Z,22.42
2022-11-29T03:32:37.086Z,21.70
2022-11-29T03:35:14.326Z,22.10
2022-11-29T03:40:42.358Z,20.20
2022-11-29T03:43:20.181Z,31.20
2022-11-29T03:46:03.711Z,22.58
2022-11-29T03:48:40.007Z,28.02
2022-11-29T03:51:13.041Z,34.17
2022-11-29T03:56:35.617Z,19.17
2022-11-29T03:59:22.461Z,21.10
2022-11-29T04:01:58.210Z,18.55
2022-11-29T04:05:04.286Z,17.45
2022-11-29T04:07:37.649Z,19.88
2022-11-29T04:10:39.139Z,15.75
2022-11-29T04:13:41.522Z,21.98
2022-11-29T04:16:38.341Z,22.67
2022-11-29T04:19:20.762Z,25.90
2022-11-29T04:22:25.946Z,18.37
2022-11-29T04:24:59.384Z,24.48
2022-11-29T04:27:31.226Z,23.95
2022-11-29T04:30:21.336Z,19.48
2022-11-29T04:33:03.944Z,21.15
2022-11-29T04:35:43.424Z,33.10
2022-11-29T04:38:37.855Z,23.52
2022-11-29T04:41:39.675Z,32.92
2022-11-29T04:44:25.435Z,29.17
2022-11-29T04:47:20.239Z,35.17
2022-11-29T04:50:05.573Z,33.63
2022-11-29T04:52:54.675Z,32.40
2022-11-29T04:55:46.081Z,30.73
2022-11-29T04:58:41.268Z,27.13
2022-11-29T05:01:30.533Z,32.97
2022-11-29T05:04:17.951Z,34.55
2022-11-29T05:07:09.851Z,36.78
2022-11-29T05:09:59.079Z,29.55
2022-11-29T05:12:45.006Z,29.92
2022-11-29T05:15:45.117Z,35.35
2022-11-29T05:18:50.070Z,30.33
2022-11-29T05:21:44.154Z,26.67
2022-11-29T05:24:23.069Z,17.98
2022-11-29T05:27:11.113Z,34.63
2022-11-29T05:29:55.617Z,26.52
2022-11-29T05:32:37.513Z,25.15
2022-11-29T05:35:26.228Z,25.90
2022-11-29T05:38:27.775Z,33.05
2022-11-29T05:41:32.855Z,30.88
2022-11-29T05:44:29.916Z,23.00
2022-11-29T05:47:00.956Z,23.38
2022-11-29T05:49:58.835Z,20.42
2022-11-29T05:52:39.910Z,31.23
2022-11-29T05:55:25.838Z,29.55
2022-11-29T05:58:08.021Z,30.30
2022-11-29T06:00:50.835Z,41.47
2022-11-29T06:03:40.475Z,20.73
2022-11-29T06:06:30.629Z,39.42
2022-11-29T06:09:11.448Z,40.72
2022-11-29T06:11:55.102Z,26.73
2022-11-29T06:14:57.623Z,40.03
2022-11-29T06:17:52.891Z,21.50
2022-11-29T06:20:45.765Z,28.75
2022-11-29T06:23:51.891Z,29.75
2022-11-29T06:26:29.469Z,33.22
2022-11-29T06:29:25.550Z,35.05
2022-11-29T06:32:21.970Z,26.40
2022-11-29T06:35:02.392Z,21.88
2022-11-29T06:37:43.114Z,25.80
2022-11-29T06:40:14.630Z,26.02
2022-11-29T06:42:42.778Z,25.08
2022-11-29T06:45:14.152Z,27.30
2022-11-29T06:47:52.274Z,23.48
2022-11-29T06:50:57.559Z,24.20
2022-11-29T06:53:39.981Z,20.80
2022-11-29T06:56:31.951Z,20.83
2022-11-29T06:59:07.584Z,27.35
2022-11-29T07:01:43.947Z,35.85
2022-11-29T07:04:35.344Z,26.95
2022-11-29T07:07:02.868Z,28.52
2022-11-29T07:09:34.336Z,27.48
2022-11-29T07:12:01.944Z,35.55
2022-11-29T07:14:36.712Z,30.83
2022-11-29T07:17:26.606Z,29.55
2022-11-29T07:20:37.472Z,27.40
2022-11-29T07:23:29.653Z,28.48
2022-11-29T07:26:09.863Z,25.65
2022-11-29T07:29:02.681Z,35.45
2022-11-29T07:31:46.964Z,25.25
2022-11-29T07:34:32.784Z,30.10
2022-11-29T07:37:13.409Z,29.92
2022-11-29T07:40:12.369Z,20.65
2022-11-29T07:42:52.572Z,21.77
2022-11-29T07:45:38.083Z,22.75
2022-11-29T07:48:07.240Z,19.13
2022-11-29T07:50:38.017Z,28.13
2022-11-29T07:53:05.601Z,20.23
2022-11-29T07:55:37.406Z,22.98
2022-11-29T07:58:04.845Z,26.77
2022-11-29T08:00:33.664Z,20.38
2022-11-29T08:03:01.092Z,24.90
2022-11-29T08:05:29.823Z,26.38
2022-11-29T08:08:02.101Z,25.50
2022-11-29T08:10:32.454Z,25.83
2022-11-29T08:13:02.448Z,26.73
2022-11-29T08:15:30.472Z,21.17
2022-11-29T08:17:57.942Z,24.38
2022-11-29T08:20:27.884Z,27.60
2022-11-29T08:22:57.527Z,23.88
2022-11-29T08:25:26.014Z,26.65
2022-11-29T08:28:01.737Z,20.52
2022-11-29T08:30:32.117Z,28.13
2022-11-29T08:33:03.488Z,23.35
2022-11-29T08:35:31.459Z,30.58
2022-11-29T08:38:01.559Z,26.48
2022-11-29T08:40:34.556Z,23.52
2022-11-29T08:43:02.095Z,21.27
2022-11-29T08:45:29.791Z,24.33
2022-11-29T08:47:57.316Z,27.60
2022-11-29T08:50:28.039Z,27.13
2022-11-29T08:53:14.947Z,19.80
2022-11-29T08:58:32.949Z,29.05
2022-11-29T09:04:04.325Z,21.92
2022-11-29T09:06:45.657Z,24.23
2022-11-29T09:09:14.725Z,27.97
2022-11-29T09:11:45.866Z,28.40
2022-11-29T09:14:17.951Z,23.88
2022-11-29T09:16:45.538Z,21.80
2022-11-29T09:19:14.383Z,29.90
2022-11-29T09:21:42.586Z,25.98
2022-11-29T09:24:10.909Z,26.77
2022-11-29T09:26:40.848Z,27.70
2022-11-29T09:29:10.574Z,21.25
2022-11-29T09:31:40.353Z,32.28
2022-11-29T09:34:10.596Z,24.35
2022-11-29T09:36:38.077Z,31.77
2022-11-29T09:39:10.028Z,26.35
2022-11-29T09:41:56.881Z,33.70
2022-11-29T09:44:44.595Z,23.38
2022-11-29T09:47:35.472Z,21.83
2022-11-29T09:50:09.088Z,24.13
2022-11-29T09:52:49.313Z,26.00
2022-11-29T09:55:37.792Z,24.67
2022-11-29T09:58:11.733Z,27.63
2022-11-29T10:00:50.824Z,20.85
2022-11-29T10:03:26.568Z,20.02
2022-11-29T10:05:58.852Z,23.63
2022-11-29T10:08:32.998Z,18.73
2022-11-29T10:11:35.409Z,27.77
2022-11-29T10:14:24.377Z,22.95
2022-11-29T10:16:54.647Z,17.02
2022-11-29T10:19:36.709Z,22.60
2022-11-29T10:22:24.461Z,20.33
2022-11-29T10:25:00.159Z,24.70
2022-11-29T10:27:29.711Z,25.05
2022-11-29T10:30:01.372Z,18.42
2022-11-29T10:32:32.710Z,19.95
2022-11-29T10:35:01.692Z,16.83
2022-11-29T10:37:33.060Z,15.13
2022-11-29T10:40:07.801Z,15.90
2022-11-29T10:42:55.051Z,16.20
2022-11-29T10:45:37.850Z,10.95
2022-11-29T10:48:17.368Z,14.02
2022-11-29T10:50:48.912Z,14.45
2022-11-29T10:53:19.874Z,14.13
2022-11-29T10:55:53.766Z,14.65
2022-11-29T10:58:28.207Z,11.73
2022-11-29T11:00:56.433Z,10.88
2022-11-29T11:03:53.499Z,15.88
2022-11-29T11:06:41.865Z,12.43
2022-11-29T11:09:28.095Z,10.02
2022-11-29T11:12:07.074Z,11.15
2022-11-29T11:14:39.059Z,9.93
2022-11-29T11:17:31.616Z,12.07
2022-11-29T11:20:02.149Z,7.80
2022-11-29T11:22:31.422Z,11.68
2022-11-29T11:25:20.892Z,9.55
2022-11-29T11:27:48.723Z,11.55
2022-11-29T11:30:25.524Z,12.52
2022-11-29T11:33:19.867Z,11.82
2022-11-29T11:36:19.641Z,10.90
2022-11-29T11:38:59.663Z,12.32
2022-11-29T11:41:50.680Z,9.20
2022-11-29T11:44:46.477Z,11.55
2022-11-29T11:47:24.504Z,11.55
2022-11-29T11:50:11.515Z,7.85
2022-11-29T11:52:52.523Z,9.02
2022-11-29T11:55:39.674Z,7.45
2022-11-29T11:58:13.221Z,10.93
2022-11-29T12:01:15.900Z,8.23
2022-11-29T12:04:16.526Z,8.00
2022-11-29T12:07:01.201Z,7.63
2022-11-29T12:09:28.857Z,8.52
2022-11-29T12:12:10.744Z,9.50
2022-11-29T12:15:05.812Z,6.88
2022-11-29T12:17:44.296Z,8.60
2022-11-29T12:20:21.548Z,8.77
2022-11-29T12:23:15.276Z,9.10
2022-11-29T12:26:13.634Z,8.15
2022-11-29T12:28:52.566Z,11.05
2022-11-29T12:31:47.485Z,11.45
2022-11-29T12:34:43.651Z,10.88
2022-11-29T12:37:23.707Z,8.68
2022-11-29T12:40:16.164Z,10.55
2022-11-29T12:42:57.670Z,10.73
2022-11-29T12:45:44.165Z,11.50
2022-11-29T12:48:46.304Z,9.73
2022-11-29T12:51:55.081Z,10.57
2022-11-29T12:54:35.881Z,11.13
2022-11-29T12:57:38.456Z,5.13
2022-11-29T13:00:11.432Z,9.13
2022-11-29T13:02:56.150Z,10.23
2022-11-29T13:05:42.633Z,6.85
2022-11-29T13:08:47.240Z,5.50
2022-11-29T13:11:38.786Z,5.15
2022-11-29T13:14:42.220Z,7.13
2022-11-29T13:17:20.525Z,5.38
2022-11-29T13:19:56.011Z,6.88
2022-11-29T13:22:43.259Z,5.75
2022-11-29T13:25:24.867Z,6.47
2022-11-29T13:28:06.498Z,4.78
2022-11-29T13:30:35.874Z,4.60
2022-11-29T13:33:46.630Z,7.63
2022-11-29T13:40:51.786Z,3.42
2022-11-29T13:43:54.997Z,3.33
2022-11-29T13:46:33.579Z,5.85
2022-11-29T13:49:01.054Z,3.30
2022-11-29T13:51:38.600Z,4.75
2022-11-29T13:54:25.080Z,4.30
2022-11-29T13:57:04.354Z,4.57
2022-11-29T13:59:34.075Z,5.45
2022-11-29T14:02:01.981Z,5.35
2022-11-29T14:08:42.521Z,5.50
2022-11-29T14:11:24.248Z,4.07
2022-11-29T14:13:58.396Z,4.65
2022-11-29T14:18:00.130Z,4.85
2022-11-29T14:20:28.610Z,3.53
2022-11-29T14:23:04.855Z,6.13
2022-11-29T14:26:02.654Z,7.07
2022-11-29T14:28:40.287Z,4.10
2022-11-29T14:31:10.494Z,4.68
2022-11-29T14:33:46.898Z,6.60
2022-11-29T14:36:38.430Z,3.55
2022-11-29T14:39:38.857Z,5.25
2022-11-29T14:42:16.074Z,5.57
2022-11-29T14:44:52.730Z,4.50
2022-11-29T14:47:38.901Z,4.47
2022-11-29T14:50:09.904Z,5.88
2022-11-29T14:52:50.841Z,5.50
2022-11-29T14:55:18.105Z,8.52
2022-11-29T14:57:51.510Z,4.25
2022-11-29T15:00:42.297Z,10.35
2022-11-29T15:07:32.909Z,6.32
2022-11-29T15:10:04.496Z,4.88
2022-11-29T15:12:37.524Z,4.30
2022-11-29T15:15:33.280Z,6.22
2022-11-29T15:18:10.894Z,7.03
2022-11-29T15:20:52.044Z,5.10
2022-11-29T15:23:21.779Z,4.43
2022-11-29T15:26:02.356Z,6.90
2022-11-29T15:28:30.253Z,6.13
2022-11-29T15:31:09.782Z,5.60
2022-11-29T15:33:40.962Z,7.68
2022-11-29T15:36:19.923Z,10.52
2022-11-29T15:38:51.347Z,24.85
2022-11-29T15:41:30.327Z,17.63
2022-11-29T15:44:06.487Z,10.90
2022-11-29T15:46:35.738Z,8.82
2022-11-29T15:49:38.659Z,8.20
2022-11-29T15:56:30.679Z,10.68
2022-11-29T15:59:05.885Z,12.02
2022-11-29T16:01:34.455Z,11.82
2022-11-29T16:04:02.194Z,12.18
2022-11-29T16:06:42.662Z,12.30
2022-11-29T16:09:15.455Z,11.65
2022-11-29T16:11:43.496Z,14.20
2022-11-29T16:14:23.867Z,14.75
2022-11-29T16:16:54.540Z,13.52
2022-11-29T16:19:38.077Z,12.13
2022-11-29T16:22:14.490Z,11.52
2022-11-29T16:25:01.090Z,11.68
2022-11-29T16:27:35.633Z,11.80
2022-11-29T16:30:04.520Z,13.32
2022-11-29T16:32:36.839Z,11.95
2022-11-29T16:35:20.777Z,12.32
2022-11-29T16:37:51.223Z,13.70
2022-11-29T16:40:30.265Z,12.90
2022-11-29T16:43:20.092Z,13.48
2022-11-29T16:45:47.490Z,15.68
2022-11-29T16:48:25.512Z,13.18
2022-11-29T16:51:12.596Z,15.07
2022-11-29T16:53:47.950Z,10.85
2022-11-29T16:56:17.750Z,12.35
2022-11-29T16:59:25.096Z,12.57
2022-11-29T17:01:37.159Z,12.73
2022-11-29T17:04:04.935Z,11.57
2022-11-29T17:06:32.323Z,12.35
2022-11-29T17:08:59.824Z,11.70
2022-11-29T17:11:27.474Z,12.93
2022-11-29T17:13:55.112Z,13.65
2022-11-29T17:16:24.312Z,12.88
2022-11-29T17:18:53.059Z,14.00
2022-11-29T17:21:29.387Z,15.55
2022-11-29T17:23:56.694Z,15.70
2022-11-29T17:26:35.381Z,14.45
2022-11-29T17:29:06.219Z,16.35
2022-11-29T17:34:39.274Z,15.75
2022-11-29T17:37:10.578Z,17.85
2022-11-29T17:39:46.999Z,17.27
2022-11-29T17:42:14.669Z,14.77
2022-11-29T17:44:42.578Z,16.85
2022-11-29T17:47:10.039Z,14.63
2022-11-29T17:49:37.705Z,15.70
2022-11-29T17:52:06.580Z,17.35
2022-11-29T17:54:34.206Z,16.17
2022-11-29T17:57:03.848Z,16.10
2022-11-29T17:59:31.183Z,17.50
2022-11-29T18:01:59.392Z,16.83
2022-11-29T18:04:26.654Z,18.45
2022-11-29T18:06:54.301Z,18.77
2022-11-29T18:09:21.576Z,19.42
2022-11-29T18:11:50.333Z,21.13
2022-11-29T18:14:21.086Z,22.23
2022-11-29T18:16:48.579Z,17.00
2022-11-29T18:19:18.547Z,24.13
2022-11-29T18:21:45.821Z,25.67
2022-11-29T18:24:13.255Z,26.10
2022-11-29T18:26:41.111Z,20.63
2022-11-29T18:29:08.736Z,21.52
2022-11-29T18:31:38.320Z,19.17
2022-11-29T18:34:09.574Z,25.40
2022-11-29T18:36:55.533Z,21.92
2022-11-29T18:39:25.203Z,21.33
2022-11-29T18:41:52.602Z,20.75
2022-11-29T18:44:21.922Z,19.80
2022-11-29T18:46:49.231Z,18.73
2022-11-29T18:49:18.125Z,20.05
2022-11-29T18:51:46.589Z,20.17
2022-11-29T18:54:18.996Z,19.98
2022-11-29T18:56:46.594Z,22.27
2022-11-29T18:59:19.150Z,19.77
2022-11-29T19:01:48.276Z,23.50
2022-11-29T19:04:22.022Z,26.55
2022-11-29T19:06:52.180Z,27.35
2022-11-29T19:09:21.376Z,30.63
2022-11-29T19:11:49.834Z,26.17
2022-11-29T19:14:17.863Z,24.60
2022-11-29T19:16:47.423Z,22.17
2022-11-29T19:19:14.688Z,21.23
2022-11-29T19:21:42.633Z,25.02
2022-11-29T19:24:15.295Z,21.98
2022-11-29T19:26:45.087Z,19.75
2022-11-29T19:29:13.927Z,21.35
2022-11-29T19:31:41.782Z,22.80
2022-11-29T19:34:09.356Z,21.10
2022-11-29T19:36:43.688Z,21.23
2022-11-29T19:41:45.259Z,25.05
2022-11-29T19:44:13.294Z,19.77
2022-11-29T19:46:49.553Z,20.48
2022-11-29T19:49:16.896Z,26.40
2022-11-29T19:51:44.448Z,21.65
2022-11-29T19:54:12.146Z,22.55
2022-11-29T19:56:40.155Z,22.00
2022-11-29T19:59:08.806Z,19.70
2022-11-29T20:01:40.938Z,18.38
2022-11-29T20:04:13.217Z,22.50
2022-11-29T20:06:43.198Z,21.00
2022-11-29T20:09:13.592Z,17.85
2022-11-29T20:11:41.038Z,22.75
2022-11-29T20:14:13.646Z,19.17
2022-11-29T20:16:41.681Z,18.33
2022-11-29T20:19:14.778Z,22.90
2022-11-29T20:21:51.351Z,20.95
2022-11-29T20:24:19.624Z,20.77
2022-11-29T20:26:50.974Z,26.45
2022-11-29T20:29:30.417Z,25.15
2022-11-29T20:31:57.958Z,22.25
2022-11-29T20:37:30.252Z,19.05
2022-11-29T20:40:04.596Z,25.70
2022-11-29T20:42:43.897Z,28.42
2022-11-29T20:45:15.655Z,26.58
2022-11-29T20:47:55.014Z,22.00
2022-11-29T20:50:28.121Z,23.98
2022-11-29T20:53:16.628Z,22.85
2022-11-29T20:55:47.990Z,26.52
2022-11-29T20:58:16.317Z,23.83
2022-11-29T21:00:43.681Z,21.63
2022-11-29T21:03:18.589Z,29.13
2022-11-29T21:05:46.472Z,32.10
2022-11-29T21:08:14.500Z,30.17
2022-11-29T21:10:41.951Z,34.00
2022-11-29T21:13:11.783Z,33.30
2022-11-29T21:15:40.053Z,27.92
2022-11-29T21:18:07.683Z,35.10
2022-11-29T21:20:34.970Z,32.72
2022-11-29T21:23:48.218Z,31.17
2022-11-29T21:26:50.132Z,29.92
2022-11-29T21:29:22.712Z,32.17
2022-11-29T21:31:54.182Z,33.50
2022-11-29T21:34:22.042Z,30.23
2022-11-29T21:36:56.582Z,34.03
2022-11-29T21:39:33.870Z,30.33
2022-11-29T21:42:02.101Z,35.25
2022-11-29T21:44:29.105Z,31.65
2022-11-29T21:46:56.210Z,27.13
2022-11-29T21:49:23.408Z,31.88
2022-11-29T21:51:50.500Z,28.02
2022-11-29T21:54:17.578Z,27.85
2022-11-29T21:56:44.692Z,29.75
2022-11-29T21:59:14.779Z,34.55
2022-11-29T22:01:41.896Z,30.33
2022-11-29T22:04:09.165Z,29.85
2022-11-29T22:06:36.866Z,31.70
2022-11-29T22:09:04.920Z,28.13
2022-11-29T22:11:32.159Z,26.52
2022-11-29T22:14:19.315Z,24.50
2022-11-29T22:16:50.766Z,20.30
2022-11-29T22:19:25.281Z,22.30
2022-11-29T22:21:55.335Z,19.45
2022-11-29T22:24:24.482Z,34.70
2022-11-29T22:26:52.761Z,37.15
2022-11-29T22:29:19.993Z,56.65
2022-11-29T22:31:49.264Z,44.65
2022-11-29T22:34:16.808Z,55.90
2022-11-29T22:36:43.921Z,45.75
2022-11-29T22:39:11.257Z,43.47
2022-11-29T22:41:39.524Z,30.58
2022-11-29T22:44:07.537Z,27.65
2022-11-29T22:46:40.359Z,38.20
2022-11-29T22:49:07.667Z,32.70
2022-11-29T22:51:36.870Z,30.52
2022-11-29T22:54:09.735Z,24.83
2022-11-29T22:56:39.255Z,23.38
2022-11-29T22:59:08.870Z,26.67
2022-11-29T23:01:39.079Z,22.13
2022-11-29T23:04:10.148Z,20.23
2022-11-29T23:06:42.674Z,23.48
2022-11-29T23:09:21.387Z,20.73
2022-11-29T23:11:53.944Z,26.48
2022-11-29T23:14:22.216Z,20.27
2022-11-29T23:16:49.456Z,18.80
2022-11-29T23:19:17.249Z,12.80
2022-11-29T23:21:45.837Z,16.42
2022-11-29T23:24:14.370Z,11.15
2022-11-29T23:26:44.898Z,10.80
2022-11-29T23:29:14.880Z,10.25
2022-11-29T23:31:42.678Z,13.93
2022-11-29T23:34:09.834Z,14.60
2022-11-29T23:36:36.829Z,20.48
2022-11-29T23:39:05.376Z,16.98
2022-11-29T23:41:33.262Z,18.17
2022-11-29T23:44:00.350Z,18.10
2022-11-29T23:46:27.361Z,16.17
2022-11-29T23:48:54.486Z,16.63
2022-11-29T23:51:21.573Z,13.43
2022-11-29T23:53:52.988Z,15.02
2022-11-29T23:56:21.091Z,18.70
2022-11-29T23:58:48.446Z,22.13
